Terminal Aerodrome Forecast
Issued by NWS

Home | Current Version | Previous Version | Text Only | Print | Product List | Glossary On
Versions: 1 2 3 4 5 6 7 8 9 10 11 12 13 14 15 16 17 18
000
FTUS46 KOTX 230520
TAFPUW
TAF
KPUW 230520Z 2306/2406 24005KT P6SM -SHRA BKN070 OVC120
     FM230700 25008KT P6SM SCT120 BKN200
     FM231000 23004KT P6SM BKN120 BKN200
     FM232000 26010G15KT P6SM BKN070 BKN120 PROB30 2320/2324 -SHRA
     FM240300 23009KT P6SM SCT070 BKN120=

USA.gov is the U.S. government's official web portal to all federal, state and local government web resources and services.